ΕΜΥ, Εθνική Μετεωρολογική Υπηρεσία - Δελτία Καιρού, Προγνώσεις

ΑΕΡΟΝΑΥΤΙΛΙΑ

GREEK AIRPORTS CODES

LGSR 270550Z 36008KT 9999 SCT025 17/12 Q1019 RMK BKN080 FEW180 HAND WIND ANEMOMETER OBSERVATION=

EUROPEAN AIRPORTS CODES

LFPO 270600Z 17003KT 3000 MIFG FEW002 07/07 Q1025 TEMPO 3000BR=